sensor_id;sensor_type;location;lat;lon;timestamp;pressure;altitude;pressure_sealevel;temperature;humidity
11542;BME280;5827;49.482;7.716;2023-01-26T00:00:16;99464.22;;;1.53;100.00
11542;BME280;5827;49.482;7.716;2023-01-26T00:02:18;99451.41;;;1.25;100.00
11542;BME280;5827;49.482;7.716;2023-01-26T00:04:20;99448.25;;;1.38;100.00
11542;BME280;5827;49.482;7.716;2023-01-26T00:06:22;99448.56;;;1.43;100.00
11542;BME280;5827;49.482;7.716;2023-01-26T00:08:24;99438.84;;;1.44;100.00
11542;BME280;5827;49.482;7.716;2023-01-26T00:10:26;99433.56;;;1.36;100.00
11542;BME280;5827;49.482;7.716;2023-01-26T00:12:28;99427.25;;;1.53;100.00
11542;BME280;5827;49.482;7.716;2023-01-26T00:14:29;99432.53;;;1.61;100.00
11542;BME280;5827;49.482;7.716;2023-01-26T00:16:49;99429.38;;;1.66;100.00
11542;BME280;5827;49.482;7.716;2023-01-26T00:18:52;99434.16;;;1.70;100.00
11542;BME280;5827;49.482;7.716;2023-01-26T00:20:54;99423.44;;;1.56;100.00
11542;BME280;5827;49.482;7.716;2023-01-26T00:22:56;99420.56;;;1.82;100.00
11542;BME280;5827;49.482;7.716;2023-01-26T00:24:58;99418.75;;;1.74;100.00
11542;BME280;5827;49.482;7.716;2023-01-26T00:27:01;99411.94;;;1.40;100.00
11542;BME280;5827;49.482;7.716;2023-01-26T00:29:02;99412.53;;;1.59;100.00
11542;BME280;5827;49.482;7.716;2023-01-26T00:31:05;99414.88;;;1.62;100.00
11542;BME280;5827;49.482;7.716;2023-01-26T00:33:07;99422.63;;;1.55;100.00
11542;BME280;5827;49.482;7.716;2023-01-26T00:35:08;99417.03;;;1.50;100.00
11542;BME280;5827;49.482;7.716;2023-01-26T00:37:10;99418.84;;;1.49;100.00
11542;BME280;5827;49.482;7.716;2023-01-26T00:39:11;99411.22;;;1.63;100.00
11542;BME280;5827;49.482;7.716;2023-01-26T00:41:13;99417.66;;;1.60;100.00
11542;BME280;5827;49.482;7.716;2023-01-26T00:43:30;99405.31;;;1.61;100.00
11542;BME280;5827;49.482;7.716;2023-01-26T00:45:33;99408.09;;;1.51;100.00
11542;BME280;5827;49.482;7.716;2023-01-26T00:47:34;99404.31;;;1.45;100.00
11542;BME280;5827;49.482;7.716;2023-01-26T00:49:36;99400.16;;;1.59;100.00
11542;BME280;5827;49.482;7.716;2023-01-26T00:51:37;99398.03;;;1.55;100.00
11542;BME280;5827;49.482;7.716;2023-01-26T00:53:39;99395.19;;;1.64;100.00
11542;BME280;5827;49.482;7.716;2023-01-26T00:55:40;99404.19;;;1.47;100.00
11542;BME280;5827;49.482;7.716;2023-01-26T00:57:42;99393.78;;;1.37;100.00
11542;BME280;5827;49.482;7.716;2023-01-26T00:59:45;99398.09;;;1.30;100.00
11542;BME280;5827;49.482;7.716;2023-01-26T01:01:46;99400.06;;;1.36;100.00
11542;BME280;5827;49.482;7.716;2023-01-26T01:03:48;99399.25;;;1.36;100.00
11542;BME280;5827;49.482;7.716;2023-01-26T01:05:51;99401.56;;;1.39;100.00
11542;BME280;5827;49.482;7.716;2023-01-26T01:07:52;99402.38;;;1.31;100.00
11542;BME280;5827;49.482;7.716;2023-01-26T01:09:54;99407.16;;;1.44;100.00
11542;BME280;5827;49.482;7.716;2023-01-26T01:11:55;99401.03;;;1.51;100.00
11542;BME280;5827;49.482;7.716;2023-01-26T01:13:57;99401.06;;;1.35;100.00
11542;BME280;5827;49.482;7.716;2023-01-26T01:16:04;99406.03;;;1.22;100.00
11542;BME280;5827;49.482;7.716;2023-01-26T01:18:05;99395.47;;;1.14;100.00
11542;BME280;5827;49.482;7.716;2023-01-26T01:20:09;99395.78;;;1.27;100.00
11542;BME280;5827;49.482;7.716;2023-01-26T01:22:10;99399.13;;;1.05;100.00
11542;BME280;5827;49.482;7.716;2023-01-26T01:24:12;99407.66;;;1.23;100.00
11542;BME280;5827;49.482;7.716;2023-01-26T01:26:14;99399.94;;;1.13;100.00
11542;BME280;5827;49.482;7.716;2023-01-26T01:28:16;99405.53;;;1.26;100.00
11542;BME280;5827;49.482;7.716;2023-01-26T01:30:17;99403.34;;;1.46;100.00
11542;BME280;5827;49.482;7.716;2023-01-26T01:32:20;99405.00;;;1.47;100.00
11542;BME280;5827;49.482;7.716;2023-01-26T01:34:22;99398.94;;;1.14;100.00
11542;BME280;5827;49.482;7.716;2023-01-26T01:36:23;99398.44;;;1.27;100.00
11542;BME280;5827;49.482;7.716;2023-01-26T01:38:25;99397.47;;;1.20;100.00
11542;BME280;5827;49.482;7.716;2023-01-26T01:40:27;99400.44;;;1.09;100.00
11542;BME280;5827;49.482;7.716;2023-01-26T01:42:29;99394.88;;;0.87;100.00
11542;BME280;5827;49.482;7.716;2023-01-26T01:44:30;99394.16;;;1.10;100.00
11542;BME280;5827;49.482;7.716;2023-01-26T01:46:33;99393.69;;;0.98;100.00
11542;BME280;5827;49.482;7.716;2023-01-26T01:48:43;99400.13;;;1.12;100.00
11542;BME280;5827;49.482;7.716;2023-01-26T01:50:49;99409.69;;;1.05;100.00
11542;BME280;5827;49.482;7.716;2023-01-26T01:52:53;99403.59;;;0.71;100.00
11542;BME280;5827;49.482;7.716;2023-01-26T01:54:58;99396.81;;;0.85;100.00
11542;BME280;5827;49.482;7.716;2023-01-26T01:57:09;99397.66;;;0.69;100.00
11542;BME280;5827;49.482;7.716;2023-01-26T01:59:15;99407.22;;;0.70;100.00
11542;BME280;5827;49.482;7.716;2023-01-26T02:01:20;99407.03;;;0.64;100.00
11542;BME280;5827;49.482;7.716;2023-01-26T02:03:21;99400.78;;;0.97;100.00
11542;BME280;5827;49.482;7.716;2023-01-26T02:05:26;99400.28;;;0.86;100.00
11542;BME280;5827;49.482;7.716;2023-01-26T02:07:33;99397.66;;;1.02;100.00
11542;BME280;5827;49.482;7.716;2023-01-26T02:09:36;99402.75;;;1.04;100.00
11542;BME280;5827;49.482;7.716;2023-01-26T02:11:57;99400.13;;;1.12;100.00
11542;BME280;5827;49.482;7.716;2023-01-26T02:14:02;99395.34;;;0.99;100.00
11542;BME280;5827;49.482;7.716;2023-01-26T02:16:05;99391.38;;;1.03;100.00
11542;BME280;5827;49.482;7.716;2023-01-26T02:18:07;99387.41;;;1.07;100.00
11542;BME280;5827;49.482;7.716;2023-01-26T02:20:16;99385.94;;;1.05;100.00
11542;BME280;5827;49.482;7.716;2023-01-26T02:22:29;99394.16;;;1.18;100.00
11542;BME280;5827;49.482;7.716;2023-01-26T02:24:35;99388.88;;;1.26;100.00
11542;BME280;5827;49.482;7.716;2023-01-26T02:26:40;99393.66;;;1.22;100.00
11542;BME280;5827;49.482;7.716;2023-01-26T02:28:43;99384.22;;;1.28;100.00
11542;BME280;5827;49.482;7.716;2023-01-26T02:30:46;99370.72;;;1.23;100.00
11542;BME280;5827;49.482;7.716;2023-01-26T02:32:48;99376.66;;;1.25;100.00
11542;BME280;5827;49.482;7.716;2023-01-26T02:34:54;99380.94;;;1.34;100.00
11542;BME280;5827;49.482;7.716;2023-01-26T02:36:57;99374.34;;;1.38;100.00
11542;BME280;5827;49.482;7.716;2023-01-26T02:39:11;99371.34;;;1.41;100.00
11542;BME280;5827;49.482;7.716;2023-01-26T02:41:16;99367.06;;;1.40;100.00
11542;BME280;5827;49.482;7.716;2023-01-26T02:43:39;99365.91;;;1.43;100.00
11542;BME280;5827;49.482;7.716;2023-01-26T02:45:40;99369.06;;;1.38;100.00
11542;BME280;5827;49.482;7.716;2023-01-26T02:47:43;99373.81;;;1.43;100.00
11542;BME280;5827;49.482;7.716;2023-01-26T02:49:45;99373.16;;;1.33;100.00
11542;BME280;5827;49.482;7.716;2023-01-26T02:51:50;99361.47;;;1.35;100.00
11542;BME280;5827;49.482;7.716;2023-01-26T02:53:51;99370.19;;;1.36;100.00
11542;BME280;5827;49.482;7.716;2023-01-26T02:55:53;99362.75;;;1.47;100.00
11542;BME280;5827;49.482;7.716;2023-01-26T02:57:56;99363.28;;;1.35;100.00
11542;BME280;5827;49.482;7.716;2023-01-26T02:59:59;99355.06;;;1.30;100.00
11542;BME280;5827;49.482;7.716;2023-01-26T03:02:01;99359.47;;;1.37;100.00
11542;BME280;5827;49.482;7.716;2023-01-26T03:04:02;99346.44;;;1.36;100.00
11542;BME280;5827;49.482;7.716;2023-01-26T03:06:04;99347.00;;;1.15;100.00
11542;BME280;5827;49.482;7.716;2023-01-26T03:08:06;99342.06;;;0.95;100.00
11542;BME280;5827;49.482;7.716;2023-01-26T03:10:08;99341.38;;;1.10;100.00
11542;BME280;5827;49.482;7.716;2023-01-26T03:12:10;99336.47;;;0.90;100.00
11542;BME280;5827;49.482;7.716;2023-01-26T03:14:14;99336.47;;;1.07;100.00
11542;BME280;5827;49.482;7.716;2023-01-26T03:16:17;99333.13;;;1.21;100.00
11542;BME280;5827;49.482;7.716;2023-01-26T03:18:20;99341.16;;;1.36;100.00
11542;BME280;5827;49.482;7.716;2023-01-26T03:20:40;99340.03;;;1.30;100.00
11542;BME280;5827;49.482;7.716;2023-01-26T03:22:59;99338.91;;;1.24;100.00
11542;BME280;5827;49.482;7.716;2023-01-26T03:25:18;99332.28;;;1.29;100.00
11542;BME280;5827;49.482;7.716;2023-01-26T03:27:40;99320.16;;;0.95;100.00
11542;BME280;5827;49.482;7.716;2023-01-26T03:29:42;99326.25;;;1.04;100.00
11542;BME280;5827;49.482;7.716;2023-01-26T03:31:45;99325.84;;;1.31;100.00
11542;BME280;5827;49.482;7.716;2023-01-26T03:33:47;99325.81;;;1.39;100.00
11542;BME280;5827;49.482;7.716;2023-01-26T03:35:51;99328.25;;;0.93;100.00
11542;BME280;5827;49.482;7.716;2023-01-26T03:37:53;99322.28;;;0.99;100.00
11542;BME280;5827;49.482;7.716;2023-01-26T03:39:55;99321.13;;;1.02;100.00
11542;BME280;5827;49.482;7.716;2023-01-26T03:42:14;99316.00;;;1.09;100.00
11542;BME280;5827;49.482;7.716;2023-01-26T03:44:33;99312.13;;;1.36;100.00
11542;BME280;5827;49.482;7.716;2023-01-26T03:46:53;99308.47;;;1.37;100.00
11542;BME280;5827;49.482;7.716;2023-01-26T03:49:12;99304.88;;;1.38;100.00
11542;BME280;5827;49.482;7.716;2023-01-26T03:51:31;99308.13;;;1.48;100.00
11542;BME280;5827;49.482;7.716;2023-01-26T03:53:50;99306.13;;;1.50;100.00
11542;BME280;5827;49.482;7.716;2023-01-26T03:56:09;99306.16;;;1.42;100.00
11542;BME280;5827;49.482;7.716;2023-01-26T03:58:17;99308.94;;;1.48;100.00
11542;BME280;5827;49.482;7.716;2023-01-26T04:00:19;99307.00;;;1.42;100.00
11542;BME280;5827;49.482;7.716;2023-01-26T04:02:22;99319.22;;;1.35;100.00
11542;BME280;5827;49.482;7.716;2023-01-26T04:04:40;99316.72;;;1.42;100.00
11542;BME280;5827;49.482;7.716;2023-01-26T04:06:59;99300.47;;;1.22;100.00
11542;BME280;5827;49.482;7.716;2023-01-26T04:09:19;99301.63;;;1.19;100.00
11542;BME280;5827;49.482;7.716;2023-01-26T04:11:20;99300.56;;;1.37;100.00
11542;BME280;5827;49.482;7.716;2023-01-26T04:13:23;99305.53;;;1.32;100.00
11542;BME280;5827;49.482;7.716;2023-01-26T04:15:42;99308.34;;;1.30;100.00
11542;BME280;5827;49.482;7.716;2023-01-26T04:18:05;99309.28;;;1.45;100.00
11542;BME280;5827;49.482;7.716;2023-01-26T04:20:24;99298.38;;;1.48;100.00
11542;BME280;5827;49.482;7.716;2023-01-26T04:22:43;99306.91;;;1.59;100.00
11542;BME280;5827;49.482;7.716;2023-01-26T04:24:44;99300.75;;;1.35;100.00
11542;BME280;5827;49.482;7.716;2023-01-26T04:26:47;99298.66;;;1.14;100.00
11542;BME280;5827;49.482;7.716;2023-01-26T04:28:48;99293.47;;;1.37;100.00
11542;BME280;5827;49.482;7.716;2023-01-26T04:30:50;99291.16;;;1.42;100.00
11542;BME280;5827;49.482;7.716;2023-01-26T04:32:52;99282.53;;;1.48;100.00
11542;BME280;5827;49.482;7.716;2023-01-26T04:34:54;99279.38;;;1.53;100.00
11542;BME280;5827;49.482;7.716;2023-01-26T04:36:56;99276.47;;;1.40;100.00
11542;BME280;5827;49.482;7.716;2023-01-26T04:38:57;99276.75;;;1.53;100.00
11542;BME280;5827;49.482;7.716;2023-01-26T04:40:59;99284.13;;;1.66;100.00
11542;BME280;5827;49.482;7.716;2023-01-26T04:43:00;99282.84;;;1.53;100.00
11542;BME280;5827;49.482;7.716;2023-01-26T04:45:03;99276.81;;;1.37;100.00
11542;BME280;5827;49.482;7.716;2023-01-26T04:47:04;99272.72;;;1.34;100.00
11542;BME280;5827;49.482;7.716;2023-01-26T04:49:06;99271.28;;;1.55;100.00
11542;BME280;5827;49.482;7.716;2023-01-26T04:51:12;99267.50;;;1.57;100.00
11542;BME280;5827;49.482;7.716;2023-01-26T04:53:14;99273.56;;;1.66;100.00
11542;BME280;5827;49.482;7.716;2023-01-26T04:55:15;99271.06;;;1.64;100.00
11542;BME280;5827;49.482;7.716;2023-01-26T04:57:17;99265.38;;;1.52;100.00
11542;BME280;5827;49.482;7.716;2023-01-26T04:59:19;99262.53;;;1.54;100.00
11542;BME280;5827;49.482;7.716;2023-01-26T05:01:21;99267.19;;;1.52;100.00
11542;BME280;5827;49.482;7.716;2023-01-26T05:03:23;99256.75;;;1.59;100.00
11542;BME280;5827;49.482;7.716;2023-01-26T05:05:25;99261.53;;;1.24;100.00
11542;BME280;5827;49.482;7.716;2023-01-26T05:07:28;99255.53;;;0.91;100.00
11542;BME280;5827;49.482;7.716;2023-01-26T05:09:30;99253.38;;;1.02;100.00
11542;BME280;5827;49.482;7.716;2023-01-26T05:11:31;99254.88;;;1.36;100.00
11542;BME280;5827;49.482;7.716;2023-01-26T05:13:33;99253.84;;;1.45;100.00
11542;BME280;5827;49.482;7.716;2023-01-26T05:15:35;99255.97;;;1.50;100.00
11542;BME280;5827;49.482;7.716;2023-01-26T05:17:36;99261.53;;;1.55;100.00
11542;BME280;5827;49.482;7.716;2023-01-26T05:19:38;99265.84;;;1.56;100.00
11542;BME280;5827;49.482;7.716;2023-01-26T05:21:39;99260.41;;;1.49;100.00
11542;BME280;5827;49.482;7.716;2023-01-26T05:23:42;99261.84;;;1.60;100.00
11542;BME280;5827;49.482;7.716;2023-01-26T05:25:43;99257.75;;;1.58;100.00
11542;BME280;5827;49.482;7.716;2023-01-26T05:27:45;99258.91;;;1.55;100.00
11542;BME280;5827;49.482;7.716;2023-01-26T05:29:47;99263.34;;;1.55;100.00
11542;BME280;5827;49.482;7.716;2023-01-26T05:31:49;99259.38;;;1.59;100.00
11542;BME280;5827;49.482;7.716;2023-01-26T05:33:50;99262.69;;;1.61;100.00
11542;BME280;5827;49.482;7.716;2023-01-26T05:35:52;99250.81;;;1.57;100.00
11542;BME280;5827;49.482;7.716;2023-01-26T05:37:54;99258.63;;;1.42;100.00
11542;BME280;5827;49.482;7.716;2023-01-26T05:39:57;99255.38;;;1.32;100.00
11542;BME280;5827;49.482;7.716;2023-01-26T05:41:59;99254.84;;;1.44;100.00
11542;BME280;5827;49.482;7.716;2023-01-26T05:44:00;99265.41;;;1.44;100.00
11542;BME280;5827;49.482;7.716;2023-01-26T05:46:02;99263.88;;;1.50;100.00
11542;BME280;5827;49.482;7.716;2023-01-26T05:48:03;99264.25;;;1.47;100.00
11542;BME280;5827;49.482;7.716;2023-01-26T05:50:06;99264.66;;;1.59;100.00
11542;BME280;5827;49.482;7.716;2023-01-26T05:52:08;99266.88;;;1.47;100.00
11542;BME280;5827;49.482;7.716;2023-01-26T05:54:10;99263.66;;;1.60;100.00
11542;BME280;5827;49.482;7.716;2023-01-26T05:56:13;99270.28;;;1.56;100.00
11542;BME280;5827;49.482;7.716;2023-01-26T05:58:15;99268.09;;;1.67;100.00
11542;BME280;5827;49.482;7.716;2023-01-26T06:00:17;99270.19;;;1.41;100.00
11542;BME280;5827;49.482;7.716;2023-01-26T06:02:18;99268.50;;;1.56;100.00
11542;BME280;5827;49.482;7.716;2023-01-26T06:04:20;99264.69;;;1.19;100.00
11542;BME280;5827;49.482;7.716;2023-01-26T06:06:22;99271.09;;;1.25;100.00
11542;BME280;5827;49.482;7.716;2023-01-26T06:08:23;99280.34;;;1.21;100.00
11542;BME280;5827;49.482;7.716;2023-01-26T06:10:25;99284.88;;;1.43;100.00
11542;BME280;5827;49.482;7.716;2023-01-26T06:12:28;99288.38;;;1.36;99.58
11542;BME280;5827;49.482;7.716;2023-01-26T06:14:34;99286.50;;;1.44;99.48
11542;BME280;5827;49.482;7.716;2023-01-26T06:16:35;99290.69;;;1.39;98.87
11542;BME280;5827;49.482;7.716;2023-01-26T06:18:37;99288.38;;;1.36;98.54
11542;BME280;5827;49.482;7.716;2023-01-26T06:20:38;99286.44;;;1.21;98.51
11542;BME280;5827;49.482;7.716;2023-01-26T06:22:40;99288.78;;;1.16;99.70
11542;BME280;5827;49.482;7.716;2023-01-26T06:24:41;99284.28;;;1.25;100.00
11542;BME280;5827;49.482;7.716;2023-01-26T06:26:43;99289.06;;;1.30;100.00
11542;BME280;5827;49.482;7.716;2023-01-26T06:28:46;99290.09;;;1.20;99.79
11542;BME280;5827;49.482;7.716;2023-01-26T06:30:47;99293.38;;;1.22;99.65
11542;BME280;5827;49.482;7.716;2023-01-26T06:32:48;99291.91;;;1.20;100.00
11542;BME280;5827;49.482;7.716;2023-01-26T06:34:50;99300.13;;;1.25;97.60
11542;BME280;5827;49.482;7.716;2023-01-26T06:36:53;99301.25;;;1.31;97.55
11542;BME280;5827;49.482;7.716;2023-01-26T06:38:55;99296.66;;;1.24;97.87
11542;BME280;5827;49.482;7.716;2023-01-26T06:40:58;99302.59;;;1.18;98.21
11542;BME280;5827;49.482;7.716;2023-01-26T06:43:01;99298.72;;;0.98;97.54
11542;BME280;5827;49.482;7.716;2023-01-26T06:45:05;99298.94;;;1.27;97.77
11542;BME280;5827;49.482;7.716;2023-01-26T06:47:06;99300.41;;;1.38;97.26
11542;BME280;5827;49.482;7.716;2023-01-26T06:49:08;99301.28;;;1.22;96.77
11542;BME280;5827;49.482;7.716;2023-01-26T06:51:43;99302.34;;;0.97;98.64
11542;BME280;5827;49.482;7.716;2023-01-26T06:53:47;99301.22;;;0.83;98.72
11542;BME280;5827;49.482;7.716;2023-01-26T06:55:49;99295.44;;;0.88;98.68
11542;BME280;5827;49.482;7.716;2023-01-26T06:57:51;99295.25;;;0.97;98.46
11542;BME280;5827;49.482;7.716;2023-01-26T06:59:52;99298.59;;;0.75;97.63
11542;BME280;5827;49.482;7.716;2023-01-26T07:01:57;99283.28;;;0.79;99.42
11542;BME280;5827;49.482;7.716;2023-01-26T07:03:59;99287.03;;;0.92;98.79
11542;BME280;5827;49.482;7.716;2023-01-26T07:06:00;99294.44;;;0.89;97.85
11542;BME280;5827;49.482;7.716;2023-01-26T07:08:02;99297.28;;;0.63;97.58
11542;BME280;5827;49.482;7.716;2023-01-26T07:10:06;99293.66;;;0.64;98.03
11542;BME280;5827;49.482;7.716;2023-01-26T07:12:07;99297.91;;;0.89;98.03
11542;BME280;5827;49.482;7.716;2023-01-26T07:14:09;99293.84;;;0.46;98.61
11542;BME280;5827;49.482;7.716;2023-01-26T07:16:12;99290.06;;;0.48;99.72
11542;BME280;5827;49.482;7.716;2023-01-26T07:18:15;99304.88;;;0.58;100.00
11542;BME280;5827;49.482;7.716;2023-01-26T07:20:16;99302.06;;;0.84;99.35
11542;BME280;5827;49.482;7.716;2023-01-26T07:22:18;99306.50;;;0.75;99.15
11542;BME280;5827;49.482;7.716;2023-01-26T07:24:19;99307.94;;;1.02;98.46
11542;BME280;5827;49.482;7.716;2023-01-26T07:26:21;99311.72;;;1.08;97.66
11542;BME280;5827;49.482;7.716;2023-01-26T07:28:22;99314.84;;;1.11;97.79
11542;BME280;5827;49.482;7.716;2023-01-26T07:30:25;99321.09;;;1.18;96.91
11542;BME280;5827;49.482;7.716;2023-01-26T07:32:27;99318.63;;;1.09;96.39
11542;BME280;5827;49.482;7.716;2023-01-26T07:34:29;99325.78;;;0.92;96.40
11542;BME280;5827;49.482;7.716;2023-01-26T07:36:31;99321.28;;;1.00;95.84
11542;BME280;5827;49.482;7.716;2023-01-26T07:38:33;99323.66;;;0.63;96.00
11542;BME280;5827;49.482;7.716;2023-01-26T07:40:34;99326.78;;;0.83;97.11
11542;BME280;5827;49.482;7.716;2023-01-26T07:42:36;99325.81;;;0.51;97.10
11542;BME280;5827;49.482;7.716;2023-01-26T07:44:37;99321.03;;;0.38;100.00
11542;BME280;5827;49.482;7.716;2023-01-26T07:46:39;99329.25;;;0.43;99.80
11542;BME280;5827;49.482;7.716;2023-01-26T07:48:40;99327.13;;;0.55;99.30
11542;BME280;5827;49.482;7.716;2023-01-26T07:50:43;99325.81;;;0.51;98.73
11542;BME280;5827;49.482;7.716;2023-01-26T07:52:46;99338.31;;;0.57;97.80
11542;BME280;5827;49.482;7.716;2023-01-26T07:54:48;99335.34;;;0.44;98.83
11542;BME280;5827;49.482;7.716;2023-01-26T07:56:50;99338.31;;;0.41;97.94
11542;BME280;5827;49.482;7.716;2023-01-26T07:58:53;99337.16;;;0.19;99.23
11542;BME280;5827;49.482;7.716;2023-01-26T08:00:55;99338.47;;;0.31;98.96
11542;BME280;5827;49.482;7.716;2023-01-26T08:02:56;99343.03;;;-0.04;100.00
11542;BME280;5827;49.482;7.716;2023-01-26T08:04:58;99336.63;;;0.07;99.68
11542;BME280;5827;49.482;7.716;2023-01-26T08:07:03;99344.03;;;0.12;99.06
11542;BME280;5827;49.482;7.716;2023-01-26T08:09:04;99345.72;;;0.21;99.09
11542;BME280;5827;49.482;7.716;2023-01-26T08:11:06;99349.66;;;0.25;98.30
11542;BME280;5827;49.482;7.716;2023-01-26T08:13:08;99346.25;;;-0.26;99.22
11542;BME280;5827;49.482;7.716;2023-01-26T08:15:10;99351.97;;;0.20;98.60
11542;BME280;5827;49.482;7.716;2023-01-26T08:17:12;99354.97;;;0.33;97.49
11542;BME280;5827;49.482;7.716;2023-01-26T08:19:16;99359.53;;;0.15;99.03
11542;BME280;5827;49.482;7.716;2023-01-26T08:21:18;99358.88;;;0.21;96.84
11542;BME280;5827;49.482;7.716;2023-01-26T08:23:21;99361.03;;;0.09;97.02
11542;BME280;5827;49.482;7.716;2023-01-26T08:25:23;99355.06;;;0.07;97.09
11542;BME280;5827;49.482;7.716;2023-01-26T08:27:24;99359.06;;;0.28;98.09
11542;BME280;5827;49.482;7.716;2023-01-26T08:29:26;99348.34;;;0.21;96.99
11542;BME280;5827;49.482;7.716;2023-01-26T08:31:27;99354.78;;;0.18;97.26
11542;BME280;5827;49.482;7.716;2023-01-26T08:33:30;99365.44;;;0.09;96.93
11542;BME280;5827;49.482;7.716;2023-01-26T08:35:32;99358.38;;;0.17;96.67
11542;BME280;5827;49.482;7.716;2023-01-26T08:37:33;99363.84;;;0.40;97.01
11542;BME280;5827;49.482;7.716;2023-01-26T08:39:36;99364.69;;;0.57;95.41
11542;BME280;5827;49.482;7.716;2023-01-26T08:41:37;99359.25;;;0.42;94.17
11542;BME280;5827;49.482;7.716;2023-01-26T08:43:39;99360.25;;;0.41;94.09
11542;BME280;5827;49.482;7.716;2023-01-26T08:45:40;99365.19;;;0.53;93.70
11542;BME280;5827;49.482;7.716;2023-01-26T08:47:42;99368.47;;;0.46;93.29
11542;BME280;5827;49.482;7.716;2023-01-26T08:49:44;99361.53;;;0.29;94.00
11542;BME280;5827;49.482;7.716;2023-01-26T08:51:46;99363.38;;;0.37;94.03
11542;BME280;5827;49.482;7.716;2023-01-26T08:53:47;99365.66;;;0.32;94.26
11542;BME280;5827;49.482;7.716;2023-01-26T08:55:50;99374.25;;;0.42;92.77
11542;BME280;5827;49.482;7.716;2023-01-26T08:57:52;99370.59;;;0.59;93.55
11542;BME280;5827;49.482;7.716;2023-01-26T08:59:55;99371.44;;;0.76;93.25
11542;BME280;5827;49.482;7.716;2023-01-26T09:01:56;99377.06;;;0.65;93.12
11542;BME280;5827;49.482;7.716;2023-01-26T09:03:58;99374.25;;;0.66;93.02
11542;BME280;5827;49.482;7.716;2023-01-26T09:06:01;99380.03;;;0.78;92.40
11542;BME280;5827;49.482;7.716;2023-01-26T09:08:05;99381.66;;;0.55;91.89
11542;BME280;5827;49.482;7.716;2023-01-26T09:10:08;99382.81;;;0.60;90.84
11542;BME280;5827;49.482;7.716;2023-01-26T09:12:11;99386.59;;;0.33;91.24
11542;BME280;5827;49.482;7.716;2023-01-26T09:14:12;99382.63;;;0.37;91.15
11542;BME280;5827;49.482;7.716;2023-01-26T09:16:18;99385.78;;;0.57;91.32
11542;BME280;5827;49.482;7.716;2023-01-26T09:18:20;99386.53;;;0.17;92.92
11542;BME280;5827;49.482;7.716;2023-01-26T09:20:21;99380.34;;;0.42;92.85
11542;BME280;5827;49.482;7.716;2023-01-26T09:22:23;99392.69;;;0.58;91.91
11542;BME280;5827;49.482;7.716;2023-01-26T09:24:24;99396.47;;;0.64;91.91
11542;BME280;5827;49.482;7.716;2023-01-26T09:26:26;99392.69;;;0.50;90.73
11542;BME280;5827;49.482;7.716;2023-01-26T09:28:30;99396.47;;;0.64;90.33
11542;BME280;5827;49.482;7.716;2023-01-26T09:30:32;99391.88;;;0.58;91.28
11542;BME280;5827;49.482;7.716;2023-01-26T09:32:33;99396.16;;;0.67;90.43
11542;BME280;5827;49.482;7.716;2023-01-26T09:34:35;99391.88;;;0.82;89.98
11542;BME280;5827;49.482;7.716;2023-01-26T09:36:36;99393.34;;;0.68;89.91
11542;BME280;5827;49.482;7.716;2023-01-26T09:38:38;99389.91;;;0.76;90.09
11542;BME280;5827;49.482;7.716;2023-01-26T09:40:44;99389.06;;;0.67;90.33
11542;BME280;5827;49.482;7.716;2023-01-26T09:42:59;99385.94;;;0.64;91.09
11542;BME280;5827;49.482;7.716;2023-01-26T09:45:19;99384.09;;;0.32;90.56
11542;BME280;5827;49.482;7.716;2023-01-26T09:47:30;99381.00;;;0.61;92.64
11542;BME280;5827;49.482;7.716;2023-01-26T09:49:44;99371.75;;;0.73;91.17
11542;BME280;5827;49.482;7.716;2023-01-26T09:51:50;99379.19;;;0.86;90.43
11542;BME280;5827;49.482;7.716;2023-01-26T09:53:58;99374.72;;;0.29;92.80
11542;BME280;5827;49.482;7.716;2023-01-26T09:56:01;99369.22;;;0.06;93.30
11542;BME280;5827;49.482;7.716;2023-01-26T09:58:04;99377.31;;;0.05;94.57
11542;BME280;5827;49.482;7.716;2023-01-26T10:00:08;99374.06;;;0.35;92.16
11542;BME280;5827;49.482;7.716;2023-01-26T10:02:21;99373.06;;;0.36;92.67
11542;BME280;5827;49.482;7.716;2023-01-26T10:04:29;99379.50;;;0.58;92.43
11542;BME280;5827;49.482;7.716;2023-01-26T10:06:36;99374.72;;;0.45;93.47
11542;BME280;5827;49.482;7.716;2023-01-26T10:08:39;99378.38;;;0.61;93.33
11542;BME280;5827;49.482;7.716;2023-01-26T10:10:45;99378.88;;;0.97;92.03
11542;BME280;5827;49.482;7.716;2023-01-26T10:12:49;99377.03;;;0.81;91.84
11542;BME280;5827;49.482;7.716;2023-01-26T10:14:52;99373.91;;;0.77;90.42
11542;BME280;5827;49.482;7.716;2023-01-26T10:17:00;99376.53;;;0.94;91.09
11542;BME280;5827;49.482;7.716;2023-01-26T10:19:11;99380.00;;;1.11;91.05
11542;BME280;5827;49.482;7.716;2023-01-26T10:21:14;99379.69;;;1.06;91.03
11542;BME280;5827;49.482;7.716;2023-01-26T10:23:21;99376.06;;;0.90;92.31
11542;BME280;5827;49.482;7.716;2023-01-26T10:25:28;99374.91;;;1.01;91.91
11542;BME280;5827;49.482;7.716;2023-01-26T10:27:33;99370.78;;;0.90;90.43
11542;BME280;5827;49.482;7.716;2023-01-26T10:29:35;99378.38;;;1.01;90.51
11542;BME280;5827;49.482;7.716;2023-01-26T10:31:36;99380.31;;;1.16;90.45
11542;BME280;5827;49.482;7.716;2023-01-26T10:33:41;99369.31;;;0.88;89.90
11542;BME280;5827;49.482;7.716;2023-01-26T10:35:45;99354.00;;;0.50;92.47
11542;BME280;5827;49.482;7.716;2023-01-26T10:37:48;99352.47;;;0.72;93.76
11542;BME280;5827;49.482;7.716;2023-01-26T10:39:59;99350.81;;;1.04;92.55
11542;BME280;5827;49.482;7.716;2023-01-26T10:42:02;99351.00;;;0.94;92.18
11542;BME280;5827;49.482;7.716;2023-01-26T10:44:20;99350.47;;;1.07;89.98
11542;BME280;5827;49.482;7.716;2023-01-26T10:46:29;99349.47;;;1.08;90.78
11542;BME280;5827;49.482;7.716;2023-01-26T10:48:31;99357.88;;;1.20;90.22
11542;BME280;5827;49.482;7.716;2023-01-26T10:50:33;99352.31;;;0.82;91.16
11542;BME280;5827;49.482;7.716;2023-01-26T10:52:36;99347.03;;;0.49;92.04
11542;BME280;5827;49.482;7.716;2023-01-26T10:54:38;99349.66;;;0.98;92.05
11542;BME280;5827;49.482;7.716;2023-01-26T10:56:43;99348.34;;;0.86;91.70
11542;BME280;5827;49.482;7.716;2023-01-26T10:58:48;99331.25;;;0.74;92.39
11542;BME280;5827;49.482;7.716;2023-01-26T11:00:54;99330.25;;;0.75;93.02
11542;BME280;5827;49.482;7.716;2023-01-26T11:03:03;99330.22;;;0.91;92.74
11542;BME280;5827;49.482;7.716;2023-01-26T11:05:21;99335.34;;;1.01;90.82
11542;BME280;5827;49.482;7.716;2023-01-26T11:07:24;99331.00;;;1.16;90.54
11542;BME280;5827;49.482;7.716;2023-01-26T11:09:28;99332.13;;;1.22;90.04